Mashhad International Airport
OIMM : now visible

Airfield :











YOU CAN JOIN US ON...

 
LOGIN :

Register | Disclaimer

   EN    FR    IT 

 









Legend :    VFR   Marginal VFR   IFR   Intensive IFR   Very Intensive IFR
Visi :
Ceiling :
>= 8 km
>= 3000ft
5 to 8 km
1000 to 3000 ft
1500m to 5 km
500 to 1000 ft
800 to 1500m
200 to 500 ft
< 800m
< 200 ft
Symbols :   Thunderstorms  Fog  Heavy snow  Heavy precipitations  Wind > 20 kt






- Airport Elevation : 3263 ft
- IATA code : MHD


OIMM - Mashhad International

CURRENT METAR :
  • 070930Z 17014KT 9999 BKN015 BKN035 11/08 Q1022 A3020

EXPIRED METARs :
  • 070900Z 12018KT 9999 SCT015 FEW030CB BKN035 12/08 Q1023 A3021
  • 070830Z 14016KT 9999 SCT015 FEW030CB BKN035 12/08 Q1023 A3021
  • 070800Z 12020KT 9999 SCT015 SCT035 12/08 Q1023 A3022
  • 070730Z 14018KT 9999 BKN015 FEW030CB 11/09 Q1023 A3023

TAF TAF OIMM
Valid from the 07 at 06:00 until the 08 at 12:00 UTC


070530Z 0706/0812 12010KT 7000 FEW035CB SCT040 BKN100
TEMPO 0706/0712 12018G28KT
BECMG 0712/0714 4000 SHRA SCT035B SCT040 OVC100
BECMG 0721/0723 16014KT 1500 SN RA BR BKN025 SCT030CB OVC090
TEMPO 0800/0806 0700 SN FG BKN010 SCT025CB OVC070



MET'MAP, your aeronautical weather chart ! - Copyright ORBIFLY December 2007 - Disclaimer

ORBIFLY MET'MAP TEAM :

Programming & Development : Alexandra Zaïnal
Concept & original design : Baudouin d'Aumeries
Assistance for programming : Marc-Olivier Méhu
Technical & hardware support : Manuel Goepfert

Contact : metmap@orbifly.com




SOURCES & CREDITS :

   NOAA       Earth
Advisory